sensor_id;sensor_type;location;lat;lon;timestamp;pressure;altitude;pressure_sealevel;temperature;humidity
63399;BME280;49533;-34.520;150.798;2022-12-18T00:01:05;101311.91;;;16.86;59.33
63399;BME280;49533;-34.520;150.798;2022-12-18T00:03:33;101303.34;;;16.88;59.50
63399;BME280;49533;-34.520;150.798;2022-12-18T00:06:01;101317.41;;;16.86;60.12
63399;BME280;49533;-34.520;150.798;2022-12-18T00:08:28;101324.50;;;16.87;59.66
63399;BME280;49533;-34.520;150.798;2022-12-18T00:10:55;101311.25;;;16.89;59.58
63399;BME280;49533;-34.520;150.798;2022-12-18T00:13:29;101315.25;;;16.92;59.37
63399;BME280;49533;-34.520;150.798;2022-12-18T00:16:03;101316.09;;;16.92;59.58
63399;BME280;49533;-34.520;150.798;2022-12-18T00:18:31;101306.72;;;16.93;59.68
63399;BME280;49533;-34.520;150.798;2022-12-18T00:21:00;101306.72;;;16.93;59.69
63399;BME280;49533;-34.520;150.798;2022-12-18T00:23:29;101301.69;;;16.95;59.99
63399;BME280;49533;-34.520;150.798;2022-12-18T00:26:00;101301.69;;;16.95;60.41
63399;BME280;49533;-34.520;150.798;2022-12-18T00:28:28;101305.72;;;16.98;60.76
63399;BME280;49533;-34.520;150.798;2022-12-18T00:31:01;101296.06;;;16.92;62.59
63399;BME280;49533;-34.520;150.798;2022-12-18T00:33:29;101304.28;;;16.92;62.09
63399;BME280;49533;-34.520;150.798;2022-12-18T00:36:01;101312.56;;;16.83;62.84
63399;BME280;49533;-34.520;150.798;2022-12-18T00:38:28;101311.63;;;16.79;62.14
63399;BME280;49533;-34.520;150.798;2022-12-18T00:40:55;101323.28;;;16.67;64.18
63399;BME280;49533;-34.520;150.798;2022-12-18T00:43:23;101331.34;;;16.64;64.84
63399;BME280;49533;-34.520;150.798;2022-12-18T00:45:50;101326.72;;;16.47;65.53
63399;BME280;49533;-34.520;150.798;2022-12-18T00:48:17;101327.56;;;16.39;66.99
63399;BME280;49533;-34.520;150.798;2022-12-18T00:50:45;101332.25;;;16.29;67.09
63399;BME280;49533;-34.520;150.798;2022-12-18T00:53:14;101323.41;;;16.24;66.93
63399;BME280;49533;-34.520;150.798;2022-12-18T00:55:41;101317.13;;;16.23;66.96
63399;BME280;49533;-34.520;150.798;2022-12-18T00:58:10;101316.78;;;16.34;66.11
63399;BME280;49533;-34.520;150.798;2022-12-18T01:00:37;101310.28;;;16.38;65.17
63399;BME280;49533;-34.520;150.798;2022-12-18T01:03:05;101307.19;;;16.48;65.25
63399;BME280;49533;-34.520;150.798;2022-12-18T01:05:33;101305.22;;;16.58;64.95
63399;BME280;49533;-34.520;150.798;2022-12-18T01:08:00;101306.81;;;16.59;64.02
63399;BME280;49533;-34.520;150.798;2022-12-18T01:10:27;101293.59;;;16.61;62.44
63399;BME280;49533;-34.520;150.798;2022-12-18T01:12:54;101301.50;;;16.62;61.72
63399;BME280;49533;-34.520;150.798;2022-12-18T01:15:22;101300.53;;;16.58;60.96
63399;BME280;49533;-34.520;150.798;2022-12-18T01:17:52;101285.84;;;16.63;60.88
63399;BME280;49533;-34.520;150.798;2022-12-18T01:20:19;101280.66;;;16.70;60.61
63399;BME280;49533;-34.520;150.798;2022-12-18T01:22:46;101285.59;;;16.77;60.55
63399;BME280;49533;-34.520;150.798;2022-12-18T01:25:14;101280.78;;;16.82;60.35
63399;BME280;49533;-34.520;150.798;2022-12-18T01:27:41;101269.63;;;16.87;59.96
63399;BME280;49533;-34.520;150.798;2022-12-18T01:30:08;101263.94;;;16.92;59.02
63399;BME280;49533;-34.520;150.798;2022-12-18T01:32:35;101268.41;;;16.97;58.89
63399;BME280;49533;-34.520;150.798;2022-12-18T01:35:03;101258.72;;;17.00;58.92
63399;BME280;49533;-34.520;150.798;2022-12-18T01:37:30;101254.16;;;17.04;59.15
63399;BME280;49533;-34.520;150.798;2022-12-18T01:39:57;101248.50;;;17.09;58.28
63399;BME280;49533;-34.520;150.798;2022-12-18T01:42:24;101246.22;;;17.11;57.80
63399;BME280;49533;-34.520;150.798;2022-12-18T01:45:05;101247.63;;;17.17;57.33
63399;BME280;49533;-34.520;150.798;2022-12-18T01:47:45;101241.44;;;17.20;56.96
63399;BME280;49533;-34.520;150.798;2022-12-18T01:50:22;101238.66;;;17.29;56.87
63399;BME280;49533;-34.520;150.798;2022-12-18T01:52:53;101230.88;;;17.31;56.28
63399;BME280;49533;-34.520;150.798;2022-12-18T01:55:25;101222.31;;;17.32;55.36
63399;BME280;49533;-34.520;150.798;2022-12-18T01:57:55;101221.19;;;17.33;54.27
63399;BME280;49533;-34.520;150.798;2022-12-18T02:00:23;101222.44;;;17.36;54.34
63399;BME280;49533;-34.520;150.798;2022-12-18T02:02:51;101226.00;;;17.36;54.56
63399;BME280;49533;-34.520;150.798;2022-12-18T02:05:29;101227.59;;;17.37;54.65
63399;BME280;49533;-34.520;150.798;2022-12-18T02:08:21;101233.09;;;17.37;54.87
63399;BME280;49533;-34.520;150.798;2022-12-18T02:11:08;101214.31;;;17.39;54.07
63399;BME280;49533;-34.520;150.798;2022-12-18T02:13:53;101212.06;;;17.42;54.31
63399;BME280;49533;-34.520;150.798;2022-12-18T02:16:29;101196.47;;;17.46;54.55
63399;BME280;49533;-34.520;150.798;2022-12-18T02:19:06;101211.63;;;17.52;54.07
63399;BME280;49533;-34.520;150.798;2022-12-18T02:21:56;101213.97;;;17.62;54.00
63399;BME280;49533;-34.520;150.798;2022-12-18T02:24:35;101211.22;;;17.62;54.18
63399;BME280;49533;-34.520;150.798;2022-12-18T02:27:07;101213.28;;;17.65;54.16
63399;BME280;49533;-34.520;150.798;2022-12-18T02:29:42;101213.88;;;17.71;54.22
63399;BME280;49533;-34.520;150.798;2022-12-18T02:32:15;101210.31;;;17.70;54.14
63399;BME280;49533;-34.520;150.798;2022-12-18T02:34:44;101211.59;;;17.73;53.98
63399;BME280;49533;-34.520;150.798;2022-12-18T02:37:15;101203.25;;;17.69;54.46
63399;BME280;49533;-34.520;150.798;2022-12-18T02:39:46;101206.63;;;17.66;54.38
63399;BME280;49533;-34.520;150.798;2022-12-18T02:42:14;101211.34;;;17.66;54.19
63399;BME280;49533;-34.520;150.798;2022-12-18T02:44:45;101212.34;;;17.61;54.37
63399;BME280;49533;-34.520;150.798;2022-12-18T02:47:15;101211.44;;;17.57;55.53
63399;BME280;49533;-34.520;150.798;2022-12-18T02:50:02;101205.47;;;17.55;55.89
63399;BME280;49533;-34.520;150.798;2022-12-18T02:52:51;101212.22;;;17.57;55.66
63399;BME280;49533;-34.520;150.798;2022-12-18T02:55:36;101207.88;;;17.56;55.29
63399;BME280;49533;-34.520;150.798;2022-12-18T02:58:20;101201.25;;;17.57;55.12
63399;BME280;49533;-34.520;150.798;2022-12-18T03:01:07;101202.03;;;17.58;54.92
63399;BME280;49533;-34.520;150.798;2022-12-18T03:03:48;101206.53;;;17.63;54.49
63399;BME280;49533;-34.520;150.798;2022-12-18T03:06:25;101202.75;;;17.67;54.88
63399;BME280;49533;-34.520;150.798;2022-12-18T03:08:59;101197.38;;;17.71;54.52
63399;BME280;49533;-34.520;150.798;2022-12-18T03:11:30;101207.25;;;17.72;54.17
63399;BME280;49533;-34.520;150.798;2022-12-18T03:14:15;101209.66;;;17.73;54.19
63399;BME280;49533;-34.520;150.798;2022-12-18T03:16:44;101199.81;;;17.72;53.83
63399;BME280;49533;-34.520;150.798;2022-12-18T03:19:15;101198.66;;;17.73;53.66
63399;BME280;49533;-34.520;150.798;2022-12-18T03:21:45;101197.84;;;17.73;53.69
63399;BME280;49533;-34.520;150.798;2022-12-18T03:24:15;101186.53;;;17.74;53.46
63399;BME280;49533;-34.520;150.798;2022-12-18T03:26:46;101192.03;;;17.74;54.40
63399;BME280;49533;-34.520;150.798;2022-12-18T03:29:19;101186.38;;;17.71;54.63
63399;BME280;49533;-34.520;150.798;2022-12-18T03:31:53;101192.47;;;17.64;54.49
63399;BME280;49533;-34.520;150.798;2022-12-18T03:34:29;101191.19;;;17.62;54.72
63399;BME280;49533;-34.520;150.798;2022-12-18T03:36:57;101202.50;;;17.60;54.85
63399;BME280;49533;-34.520;150.798;2022-12-18T03:39:25;101194.69;;;17.50;55.33
63399;BME280;49533;-34.520;150.798;2022-12-18T03:42:02;101199.03;;;17.51;55.27
63399;BME280;49533;-34.520;150.798;2022-12-18T03:47:35;101210.09;;;17.42;56.58
63399;BME280;49533;-34.520;150.798;2022-12-18T03:50:25;101203.22;;;17.36;56.83
63399;BME280;49533;-34.520;150.798;2022-12-18T03:53:25;101200.00;;;17.34;56.34
63399;BME280;49533;-34.520;150.798;2022-12-18T03:55:48;101200.22;;;17.29;54.36
63399;BME280;49533;-34.520;150.798;2022-12-18T03:58:20;101195.41;;;17.26;53.38
63399;BME280;49533;-34.520;150.798;2022-12-18T04:00:49;101194.72;;;17.29;53.46
63399;BME280;49533;-34.520;150.798;2022-12-18T04:03:20;101193.25;;;17.31;53.09
63399;BME280;49533;-34.520;150.798;2022-12-18T04:05:49;101198.06;;;17.34;52.74
63399;BME280;49533;-34.520;150.798;2022-12-18T04:08:18;101189.81;;;17.34;53.06
63399;BME280;49533;-34.520;150.798;2022-12-18T04:10:46;101184.78;;;17.36;53.56
63399;BME280;49533;-34.520;150.798;2022-12-18T04:13:24;101190.75;;;17.38;53.43
63399;BME280;49533;-34.520;150.798;2022-12-18T04:15:51;101197.38;;;17.37;53.22
63399;BME280;49533;-34.520;150.798;2022-12-18T04:18:19;101184.31;;;17.34;53.58
63399;BME280;49533;-34.520;150.798;2022-12-18T04:20:46;101201.75;;;17.38;53.34
63399;BME280;49533;-34.520;150.798;2022-12-18T04:23:14;101182.97;;;17.41;52.82
63399;BME280;49533;-34.520;150.798;2022-12-18T04:25:41;101182.97;;;17.41;53.20
63399;BME280;49533;-34.520;150.798;2022-12-18T04:28:09;101190.56;;;17.44;53.33
63399;BME280;49533;-34.520;150.798;2022-12-18T04:30:36;101180.84;;;17.46;53.31
63399;BME280;49533;-34.520;150.798;2022-12-18T04:33:03;101177.88;;;17.51;53.39
63399;BME280;49533;-34.520;150.798;2022-12-18T04:35:30;101163.25;;;17.59;53.27
63399;BME280;49533;-34.520;150.798;2022-12-18T04:37:57;101168.84;;;17.63;53.33
63399;BME280;49533;-34.520;150.798;2022-12-18T04:40:24;101162.47;;;17.71;53.17
63399;BME280;49533;-34.520;150.798;2022-12-18T04:42:51;101163.59;;;17.70;52.82
63399;BME280;49533;-34.520;150.798;2022-12-18T04:45:19;101158.91;;;17.71;51.69
63399;BME280;49533;-34.520;150.798;2022-12-18T04:47:46;101169.78;;;17.67;51.44
63399;BME280;49533;-34.520;150.798;2022-12-18T04:50:13;101169.78;;;17.67;51.64
63399;BME280;49533;-34.520;150.798;2022-12-18T04:52:40;101161.06;;;17.65;51.80
63399;BME280;49533;-34.520;150.798;2022-12-18T04:55:07;101158.00;;;17.67;51.96
63399;BME280;49533;-34.520;150.798;2022-12-18T04:57:34;101157.31;;;17.70;52.33
63399;BME280;49533;-34.520;150.798;2022-12-18T05:00:03;101151.47;;;17.71;52.42
63399;BME280;49533;-34.520;150.798;2022-12-18T05:02:32;101156.53;;;17.69;52.64
63399;BME280;49533;-34.520;150.798;2022-12-18T05:04:59;101150.34;;;17.72;53.30
63399;BME280;49533;-34.520;150.798;2022-12-18T05:07:26;101143.22;;;17.71;53.88
63399;BME280;49533;-34.520;150.798;2022-12-18T05:09:53;101142.09;;;17.72;53.59
63399;BME280;49533;-34.520;150.798;2022-12-18T05:12:24;101132.69;;;17.73;52.80
63399;BME280;49533;-34.520;150.798;2022-12-18T05:14:51;101122.97;;;17.76;52.84
63399;BME280;49533;-34.520;150.798;2022-12-18T05:17:18;101127.34;;;17.77;53.44
63399;BME280;49533;-34.520;150.798;2022-12-18T05:19:46;101129.72;;;17.78;53.51
63399;BME280;49533;-34.520;150.798;2022-12-18T05:22:13;101123.56;;;17.81;53.74
63399;BME280;49533;-34.520;150.798;2022-12-18T05:24:41;101129.19;;;17.85;53.85
63399;BME280;49533;-34.520;150.798;2022-12-18T05:27:08;101131.59;;;17.87;53.73
63399;BME280;49533;-34.520;150.798;2022-12-18T05:29:35;101126.44;;;17.85;53.71
63399;BME280;49533;-34.520;150.798;2022-12-18T05:32:02;101122.56;;;17.86;53.86
63399;BME280;49533;-34.520;150.798;2022-12-18T05:34:29;101123.34;;;17.87;53.66
63399;BME280;49533;-34.520;150.798;2022-12-18T05:36:57;101117.84;;;17.87;53.65
63399;BME280;49533;-34.520;150.798;2022-12-18T05:39:24;101126.56;;;17.89;53.67
63399;BME280;49533;-34.520;150.798;2022-12-18T05:41:51;101117.53;;;17.88;53.79
63399;BME280;49533;-34.520;150.798;2022-12-18T05:44:18;101122.69;;;17.90;53.94
63399;BME280;49533;-34.520;150.798;2022-12-18T05:46:45;101121.06;;;17.89;53.75
63399;BME280;49533;-34.520;150.798;2022-12-18T05:49:13;101119.47;;;17.88;54.05
63399;BME280;49533;-34.520;150.798;2022-12-18T05:51:40;101122.69;;;17.90;54.21
63399;BME280;49533;-34.520;150.798;2022-12-18T05:54:07;101128.19;;;17.90;54.20
63399;BME280;49533;-34.520;150.798;2022-12-18T05:56:34;101123.13;;;17.92;54.21
63399;BME280;49533;-34.520;150.798;2022-12-18T05:59:01;101117.28;;;17.93;54.26
63399;BME280;49533;-34.520;150.798;2022-12-18T06:01:28;101125.22;;;17.95;54.27
63399;BME280;49533;-34.520;150.798;2022-12-18T06:03:55;101133.47;;;17.95;54.18
63399;BME280;49533;-34.520;150.798;2022-12-18T06:06:26;101126.47;;;17.97;54.27
63399;BME280;49533;-34.520;150.798;2022-12-18T06:08:54;101118.66;;;17.99;54.27
63399;BME280;49533;-34.520;150.798;2022-12-18T06:11:24;101114.78;;;18.00;54.18
63399;BME280;49533;-34.520;150.798;2022-12-18T06:13:54;101122.34;;;18.03;54.31
63399;BME280;49533;-34.520;150.798;2022-12-18T06:16:21;101119.25;;;18.05;54.39
63399;BME280;49533;-34.520;150.798;2022-12-18T06:18:48;101124.41;;;18.07;54.29
63399;BME280;49533;-34.520;150.798;2022-12-18T06:21:15;101126.34;;;18.06;54.20
63399;BME280;49533;-34.520;150.798;2022-12-18T06:23:43;101129.56;;;18.08;54.34
63399;BME280;49533;-34.520;150.798;2022-12-18T06:26:12;101128.78;;;18.08;54.29
63399;BME280;49533;-34.520;150.798;2022-12-18T06:28:39;101129.91;;;18.07;54.29
63399;BME280;49533;-34.520;150.798;2022-12-18T06:31:07;101129.09;;;18.06;54.14
63399;BME280;49533;-34.520;150.798;2022-12-18T06:33:35;101129.91;;;18.07;54.21
63399;BME280;49533;-34.520;150.798;2022-12-18T06:36:10;101131.53;;;18.08;54.00
63399;BME280;49533;-34.520;150.798;2022-12-18T06:38:40;101125.19;;;18.07;53.87
63399;BME280;49533;-34.520;150.798;2022-12-18T06:41:09;101136.56;;;18.06;53.70
63399;BME280;49533;-34.520;150.798;2022-12-18T06:43:36;101143.66;;;18.07;53.86
63399;BME280;49533;-34.520;150.798;2022-12-18T06:46:04;101135.88;;;18.09;53.74
63399;BME280;49533;-34.520;150.798;2022-12-18T06:48:32;101134.28;;;18.08;53.76
63399;BME280;49533;-34.520;150.798;2022-12-18T06:50:59;101136.66;;;18.09;53.62
63399;BME280;49533;-34.520;150.798;2022-12-18T06:53:27;101145.38;;;18.11;53.66
63399;BME280;49533;-34.520;150.798;2022-12-18T06:56:03;101140.69;;;18.12;53.64
63399;BME280;49533;-34.520;150.798;2022-12-18T06:58:30;101143.78;;;18.10;53.53
63399;BME280;49533;-34.520;150.798;2022-12-18T07:01:02;101143.78;;;18.10;53.79
63399;BME280;49533;-34.520;150.798;2022-12-18T07:03:30;101150.19;;;18.14;53.63
63399;BME280;49533;-34.520;150.798;2022-12-18T07:05:57;101157.97;;;18.12;53.69
63399;BME280;49533;-34.520;150.798;2022-12-18T07:08:29;101139.88;;;18.11;53.49
63399;BME280;49533;-34.520;150.798;2022-12-18T07:10:56;101150.88;;;18.11;53.51
63399;BME280;49533;-34.520;150.798;2022-12-18T07:13:24;101150.88;;;18.11;53.46
63399;BME280;49533;-34.520;150.798;2022-12-18T07:15:51;101162.66;;;18.12;53.43
63399;BME280;49533;-34.520;150.798;2022-12-18T07:18:18;101158.66;;;18.09;53.46
63399;BME280;49533;-34.520;150.798;2022-12-18T07:20:45;101168.53;;;18.10;53.50
63399;BME280;49533;-34.520;150.798;2022-12-18T07:23:12;101163.03;;;18.10;53.44
63399;BME280;49533;-34.520;150.798;2022-12-18T07:25:40;101170.44;;;18.10;53.73
63399;BME280;49533;-34.520;150.798;2022-12-18T07:28:08;101165.78;;;18.10;53.62
63399;BME280;49533;-34.520;150.798;2022-12-18T07:30:37;101178.72;;;18.10;53.66
63399;BME280;49533;-34.520;150.798;2022-12-18T07:33:04;101171.63;;;18.09;53.71
63399;BME280;49533;-34.520;150.798;2022-12-18T07:35:33;101175.94;;;18.10;53.62
63399;BME280;49533;-34.520;150.798;2022-12-18T07:38:00;101171.28;;;18.10;53.46
63399;BME280;49533;-34.520;150.798;2022-12-18T07:40:27;101185.38;;;18.09;53.58
63399;BME280;49533;-34.520;150.798;2022-12-18T07:42:54;101174.69;;;18.07;53.71
63399;BME280;49533;-34.520;150.798;2022-12-18T07:45:21;101185.38;;;18.09;53.47
63399;BME280;49533;-34.520;150.798;2022-12-18T07:47:48;101183.78;;;18.08;53.60
63399;BME280;49533;-34.520;150.798;2022-12-18T07:50:15;101185.69;;;18.07;53.73
63399;BME280;49533;-34.520;150.798;2022-12-18T07:52:43;101199.44;;;18.07;53.76
63399;BME280;49533;-34.520;150.798;2022-12-18T07:55:10;101203.34;;;18.06;54.01
63399;BME280;49533;-34.520;150.798;2022-12-18T07:57:37;101202.56;;;18.06;54.00
63399;BME280;49533;-34.520;150.798;2022-12-18T08:00:05;101197.75;;;18.02;54.16
63399;BME280;49533;-34.520;150.798;2022-12-18T08:02:32;101200.13;;;18.04;54.17
63399;BME280;49533;-34.520;150.798;2022-12-18T08:04:59;101204.84;;;18.03;54.17
63399;BME280;49533;-34.520;150.798;2022-12-18T08:07:26;101204.03;;;18.03;54.38
63399;BME280;49533;-34.520;150.798;2022-12-18T08:09:53;101211.91;;;18.04;54.38
63399;BME280;49533;-34.520;150.798;2022-12-18T08:12:20;101215.50;;;18.05;54.55
63399;BME280;49533;-34.520;150.798;2022-12-18T08:14:47;101211.13;;;18.04;54.47
63399;BME280;49533;-34.520;150.798;2022-12-18T08:17:14;101215.03;;;18.03;54.54
63399;BME280;49533;-34.520;150.798;2022-12-18T08:19:42;101212.28;;;18.03;54.72
63399;BME280;49533;-34.520;150.798;2022-12-18T08:22:09;101217.00;;;18.02;54.64
63399;BME280;49533;-34.520;150.798;2022-12-18T08:24:36;101205.53;;;18.00;54.55
63399;BME280;49533;-34.520;150.798;2022-12-18T08:27:03;101214.91;;;17.99;54.48
63399;BME280;49533;-34.520;150.798;2022-12-18T08:29:31;101221.66;;;18.02;54.50
63399;BME280;49533;-34.520;150.798;2022-12-18T08:31:58;101225.22;;;18.02;54.60
63399;BME280;49533;-34.520;150.798;2022-12-18T08:34:26;101225.88;;;17.99;54.71
63399;BME280;49533;-34.520;150.798;2022-12-18T08:36:53;101226.25;;;17.98;54.46
63399;BME280;49533;-34.520;150.798;2022-12-18T08:39:20;101229.00;;;17.98;54.61
63399;BME280;49533;-34.520;150.798;2022-12-18T08:41:47;101226.25;;;17.98;54.52
63399;BME280;49533;-34.520;150.798;2022-12-18T08:44:33;101225.78;;;17.96;54.56
63399;BME280;49533;-34.520;150.798;2022-12-18T08:47:06;101232.06;;;17.96;54.61
63399;BME280;49533;-34.520;150.798;2022-12-18T08:49:34;101241.47;;;17.95;54.62
63399;BME280;49533;-34.520;150.798;2022-12-18T08:52:01;101248.94;;;17.95;54.55
63399;BME280;49533;-34.520;150.798;2022-12-18T08:54:29;101244.56;;;17.94;54.49
63399;BME280;49533;-34.520;150.798;2022-12-18T08:56:56;101238.25;;;17.93;54.49
63399;BME280;49533;-34.520;150.798;2022-12-18T08:59:23;101245.25;;;17.91;54.81
63399;BME280;49533;-34.520;150.798;2022-12-18T09:01:53;101241.34;;;17.92;54.57
63399;BME280;49533;-34.520;150.798;2022-12-18T09:04:22;101240.91;;;17.90;54.56
63399;BME280;49533;-34.520;150.798;2022-12-18T09:06:49;101253.81;;;17.89;54.39
63399;BME280;49533;-34.520;150.798;2022-12-18T09:09:16;101252.69;;;17.90;54.33
63399;BME280;49533;-34.520;150.798;2022-12-18T09:11:43;101251.06;;;17.89;55.00
63399;BME280;49533;-34.520;150.798;2022-12-18T09:14:10;101250.25;;;17.89;54.46
63399;BME280;49533;-34.520;150.798;2022-12-18T09:16:38;101256.44;;;17.86;54.40
63399;BME280;49533;-34.520;150.798;2022-12-18T09:19:05;101258.88;;;17.87;54.30
63399;BME280;49533;-34.520;150.798;2022-12-18T09:21:34;101260.78;;;17.87;54.32
63399;BME280;49533;-34.520;150.798;2022-12-18T09:24:02;101265.16;;;17.88;54.30
63399;BME280;49533;-34.520;150.798;2022-12-18T09:26:29;101274.91;;;17.85;54.21
63399;BME280;49533;-34.520;150.798;2022-12-18T09:28:56;101281.50;;;17.84;54.05
63399;BME280;49533;-34.520;150.798;2022-12-18T09:31:24;101296.88;;;17.85;54.37
63399;BME280;49533;-34.520;150.798;2022-12-18T09:33:51;101291.38;;;17.85;54.62
63399;BME280;49533;-34.520;150.798;2022-12-18T09:36:18;101276.38;;;17.83;54.64
63399;BME280;49533;-34.520;150.798;2022-12-18T09:38:46;101276.00;;;17.84;54.92
63399;BME280;49533;-34.520;150.798;2022-12-18T09:41:33;101277.16;;;17.83;55.29
63399;BME280;49533;-34.520;150.798;2022-12-18T09:44:10;101279.13;;;17.83;55.30
63399;BME280;49533;-34.520;150.798;2022-12-18T09:46:43;101288.16;;;17.83;55.23
63399;BME280;49533;-34.520;150.798;2022-12-18T09:49:16;101281.06;;;17.82;55.66
63399;BME280;49533;-34.520;150.798;2022-12-18T09:51:52;101286.91;;;17.80;55.70
63399;BME280;49533;-34.520;150.798;2022-12-18T09:54:26;101284.78;;;17.77;55.64
63399;BME280;49533;-34.520;150.798;2022-12-18T09:56:57;101282.84;;;17.78;55.80
63399;BME280;49533;-34.520;150.798;2022-12-18T09:59:30;101289.94;;;17.79;55.72
63399;BME280;49533;-34.520;150.798;2022-12-18T10:01:59;101284.00;;;17.77;55.74
63399;BME280;49533;-34.520;150.798;2022-12-18T10:04:29;101280.41;;;17.76;55.89
63399;BME280;49533;-34.520;150.798;2022-12-18T10:07:06;101284.31;;;17.75;55.72
63399;BME280;49533;-34.520;150.798;2022-12-18T10:09:55;101280.78;;;17.75;55.98
63399;BME280;49533;-34.520;150.798;2022-12-18T10:12:42;101287.06;;;17.75;55.82
63399;BME280;49533;-34.520;150.798;2022-12-18T10:15:29;101283.84;;;17.73;55.82
63399;BME280;49533;-34.520;150.798;2022-12-18T10:18:10;101282.25;;;17.72;55.98
63399;BME280;49533;-34.520;150.798;2022-12-18T10:20:45;101284.53;;;17.70;56.02
63399;BME280;49533;-34.520;150.798;2022-12-18T10:23:24;101276.28;;;17.70;55.95
63399;BME280;49533;-34.520;150.798;2022-12-18T10:26:04;101284.53;;;17.70;56.08
63399;BME280;49533;-34.520;150.798;2022-12-18T10:28:35;101284.53;;;17.70;56.02
63399;BME280;49533;-34.520;150.798;2022-12-18T10:31:04;101293.94;;;17.69;56.10
63399;BME280;49533;-34.520;150.798;2022-12-18T10:33:33;101286.34;;;17.66;56.12
63399;BME280;49533;-34.520;150.798;2022-12-18T10:36:00;101293.78;;;17.66;56.30
63399;BME280;49533;-34.520;150.798;2022-12-18T10:38:30;101289.06;;;17.66;56.17
63399;BME280;49533;-34.520;150.798;2022-12-18T10:41:02;101286.69;;;17.65;56.19
63399;BME280;49533;-34.520;150.798;2022-12-18T10:43:36;101285.88;;;17.64;56.18
63399;BME280;49533;-34.520;150.798;2022-12-18T10:46:20;101288.63;;;17.64;56.11
63399;BME280;49533;-34.520;150.798;2022-12-18T10:48:54;101287.38;;;17.62;56.14
63399;BME280;49533;-34.520;150.798;2022-12-18T10:51:28;101287.38;;;17.62;55.95
63399;BME280;49533;-34.520;150.798;2022-12-18T10:54:04;101286.09;;;17.59;56.12
63399;BME280;49533;-34.520;150.798;2022-12-18T10:56:34;101296.72;;;17.60;55.97
63399;BME280;49533;-34.520;150.798;2022-12-18T10:59:04;101290.44;;;17.60;56.16
63399;BME280;49533;-34.520;150.798;2022-12-18T11:01:49;101296.72;;;17.60;56.22
63399;BME280;49533;-34.520;150.798;2022-12-18T11:04:21;101283.66;;;17.57;56.61
63399;BME280;49533;-34.520;150.798;2022-12-18T11:06:55;101290.44;;;17.60;56.50
63399;BME280;49533;-34.520;150.798;2022-12-18T11:09:26;101292.03;;;17.61;56.67
63399;BME280;49533;-34.520;150.798;2022-12-18T11:11:56;101295.94;;;17.60;56.68
63399;BME280;49533;-34.520;150.798;2022-12-18T11:14:33;101293.50;;;17.58;56.85
63399;BME280;49533;-34.520;150.798;2022-12-18T11:17:01;101291.91;;;17.57;57.07
63399;BME280;49533;-34.520;150.798;2022-12-18T11:19:35;101281.72;;;17.58;56.79
63399;BME280;49533;-34.520;150.798;2022-12-18T11:22:20;101279.31;;;17.56;57.07
63399;BME280;49533;-34.520;150.798;2022-12-18T11:24:59;101282.50;;;17.58;57.18
63399;BME280;49533;-34.520;150.798;2022-12-18T11:27:28;101280.13;;;17.57;57.24
63399;BME280;49533;-34.520;150.798;2022-12-18T11:30:09;101283.88;;;17.52;57.26
63399;BME280;49533;-34.520;150.798;2022-12-18T11:32:39;101277.56;;;17.52;57.53
63399;BME280;49533;-34.520;150.798;2022-12-18T11:35:23;101280.66;;;17.50;57.77
63399;BME280;49533;-34.520;150.798;2022-12-18T11:37:59;101288.09;;;17.50;57.67
63399;BME280;49533;-34.520;150.798;2022-12-18T11:40:36;101282.91;;;17.48;57.85
63399;BME280;49533;-34.520;150.798;2022-12-18T11:43:14;101286.16;;;17.50;57.62
63399;BME280;49533;-34.520;150.798;2022-12-18T11:45:50;101287.63;;;17.48;57.97
63399;BME280;49533;-34.520;150.798;2022-12-18T11:48:29;101297.00;;;17.47;57.92
63399;BME280;49533;-34.520;150.798;2022-12-18T11:51:00;101289.56;;;17.47;57.76
63399;BME280;49533;-34.520;150.798;2022-12-18T11:53:30;101297.00;;;17.47;57.77
63399;BME280;49533;-34.520;150.798;2022-12-18T11:56:26;101292.19;;;17.44;58.25
63399;BME280;49533;-34.520;150.798;2022-12-18T11:59:15;101288.63;;;17.43;58.06
63399;BME280;49533;-34.520;150.798;2022-12-18T12:01:53;101280.72;;;17.42;58.41
63399;BME280;49533;-34.520;150.798;2022-12-18T12:04:43;101279.78;;;17.37;58.71
63399;BME280;49533;-34.520;150.798;2022-12-18T12:10:33;101284.94;;;17.39;58.73
63399;BME280;49533;-34.520;150.798;2022-12-18T12:13:22;101288.03;;;17.37;58.74
63399;BME280;49533;-34.520;150.798;2022-12-18T12:16:15;101284.16;;;17.38;58.54
63399;BME280;49533;-34.520;150.798;2022-12-18T12:19:02;101280.56;;;17.38;58.67
63399;BME280;49533;-34.520;150.798;2022-12-18T12:21:43;101270.41;;;17.38;58.70
63399;BME280;49533;-34.520;150.798;2022-12-18T12:24:39;101274.63;;;17.36;58.65
63399;BME280;49533;-34.520;150.798;2022-12-18T12:27:34;101273.00;;;17.35;58.88
63399;BME280;49533;-34.520;150.798;2022-12-18T12:30:14;101277.72;;;17.34;58.74
63399;BME280;49533;-34.520;150.798;2022-12-18T12:33:06;101280.44;;;17.34;59.00
63399;BME280;49533;-34.520;150.798;2022-12-18T12:35:52;101274.47;;;17.32;59.17
63399;BME280;49533;-34.520;150.798;2022-12-18T12:38:26;101273.69;;;17.32;59.11
63399;BME280;49533;-34.520;150.798;2022-12-18T12:41:02;101277.22;;;17.32;59.03
63399;BME280;49533;-34.520;150.798;2022-12-18T12:43:37;101279.19;;;17.32;58.88
63399;BME280;49533;-34.520;150.798;2022-12-18T12:46:10;101272.09;;;17.31;58.98
63399;BME280;49533;-34.520;150.798;2022-12-18T12:48:47;101274.84;;;17.31;58.73